sensor_id;sensor_type;location;lat;lon;timestamp;P1;durP1;ratioP1;P2;durP2;ratioP2
33154;SDS011;19511;42.682;23.332;2023-04-03T00:03:50;2.47;;;1.52;;
33154;SDS011;19511;42.682;23.332;2023-04-03T00:06:16;1.73;;;1.20;;
33154;SDS011;19511;42.682;23.332;2023-04-03T00:08:42;3.75;;;2.20;;
33154;SDS011;19511;42.682;23.332;2023-04-03T00:11:08;6.22;;;2.00;;
33154;SDS011;19511;42.682;23.332;2023-04-03T00:13:34;6.35;;;1.80;;
33154;SDS011;19511;42.682;23.332;2023-04-03T00:16:01;3.85;;;1.83;;
33154;SDS011;19511;42.682;23.332;2023-04-03T00:18:28;3.65;;;1.52;;
33154;SDS011;19511;42.682;23.332;2023-04-03T00:20:54;4.47;;;1.83;;
33154;SDS011;19511;42.682;23.332;2023-04-03T00:23:20;4.68;;;2.00;;
33154;SDS011;19511;42.682;23.332;2023-04-03T00:25:45;3.95;;;1.77;;
33154;SDS011;19511;42.682;23.332;2023-04-03T00:28:11;3.97;;;1.65;;
33154;SDS011;19511;42.682;23.332;2023-04-03T00:30:36;7.38;;;2.78;;
33154;SDS011;19511;42.682;23.332;2023-04-03T00:33:05;3.42;;;1.75;;
33154;SDS011;19511;42.682;23.332;2023-04-03T00:35:36;4.15;;;1.90;;
33154;SDS011;19511;42.682;23.332;2023-04-03T00:38:02;3.63;;;1.98;;
33154;SDS011;19511;42.682;23.332;2023-04-03T00:40:27;3.05;;;1.83;;
33154;SDS011;19511;42.682;23.332;2023-04-03T00:43:05;4.45;;;2.65;;
33154;SDS011;19511;42.682;23.332;2023-04-03T00:45:39;3.22;;;1.92;;
33154;SDS011;19511;42.682;23.332;2023-04-03T00:48:08;7.07;;;2.53;;
33154;SDS011;19511;42.682;23.332;2023-04-03T00:50:56;4.20;;;1.85;;
33154;SDS011;19511;42.682;23.332;2023-04-03T00:53:25;3.67;;;1.60;;
33154;SDS011;19511;42.682;23.332;2023-04-03T00:56:23;3.67;;;1.90;;
33154;SDS011;19511;42.682;23.332;2023-04-03T00:58:56;6.40;;;2.77;;
33154;SDS011;19511;42.682;23.332;2023-04-03T01:01:29;5.35;;;2.28;;
33154;SDS011;19511;42.682;23.332;2023-04-03T01:03:55;4.47;;;2.05;;
33154;SDS011;19511;42.682;23.332;2023-04-03T01:06:24;5.15;;;2.42;;
33154;SDS011;19511;42.682;23.332;2023-04-03T01:08:56;3.00;;;2.17;;
33154;SDS011;19511;42.682;23.332;2023-04-03T01:11:22;6.88;;;3.28;;
33154;SDS011;19511;42.682;23.332;2023-04-03T01:13:47;5.22;;;2.80;;
33154;SDS011;19511;42.682;23.332;2023-04-03T01:16:14;5.13;;;2.50;;
33154;SDS011;19511;42.682;23.332;2023-04-03T01:18:43;4.28;;;2.80;;
33154;SDS011;19511;42.682;23.332;2023-04-03T01:26:31;7.07;;;3.45;;
33154;SDS011;19511;42.682;23.332;2023-04-03T01:28:59;3.58;;;2.58;;
33154;SDS011;19511;42.682;23.332;2023-04-03T01:31:27;5.75;;;2.92;;
33154;SDS011;19511;42.682;23.332;2023-04-03T01:33:56;8.00;;;3.03;;
33154;SDS011;19511;42.682;23.332;2023-04-03T01:36:27;3.35;;;1.90;;
33154;SDS011;19511;42.682;23.332;2023-04-03T01:38:54;4.57;;;3.30;;
33154;SDS011;19511;42.682;23.332;2023-04-03T01:41:21;7.10;;;3.05;;
33154;SDS011;19511;42.682;23.332;2023-04-03T01:43:50;6.75;;;2.15;;
33154;SDS011;19511;42.682;23.332;2023-04-03T01:46:16;3.38;;;2.10;;
33154;SDS011;19511;42.682;23.332;2023-04-03T01:48:43;4.07;;;2.38;;
33154;SDS011;19511;42.682;23.332;2023-04-03T01:51:16;5.55;;;2.28;;
33154;SDS011;19511;42.682;23.332;2023-04-03T01:53:41;5.88;;;2.10;;
33154;SDS011;19511;42.682;23.332;2023-04-03T01:56:07;6.00;;;2.63;;
33154;SDS011;19511;42.682;23.332;2023-04-03T01:58:33;2.75;;;2.10;;
33154;SDS011;19511;42.682;23.332;2023-04-03T02:00:58;9.90;;;2.17;;
33154;SDS011;19511;42.682;23.332;2023-04-03T02:03:24;4.78;;;2.88;;
33154;SDS011;19511;42.682;23.332;2023-04-03T02:05:50;5.47;;;2.55;;
33154;SDS011;19511;42.682;23.332;2023-04-03T02:08:18;16.70;;;2.72;;
33154;SDS011;19511;42.682;23.332;2023-04-03T02:10:46;2.80;;;2.15;;
33154;SDS011;19511;42.682;23.332;2023-04-03T02:13:16;6.95;;;2.83;;
33154;SDS011;19511;42.682;23.332;2023-04-03T02:15:41;5.65;;;3.47;;
33154;SDS011;19511;42.682;23.332;2023-04-03T02:18:07;8.98;;;2.75;;
33154;SDS011;19511;42.682;23.332;2023-04-03T02:20:36;11.07;;;3.03;;
33154;SDS011;19511;42.682;23.332;2023-04-03T02:23:04;25.88;;;2.42;;
33154;SDS011;19511;42.682;23.332;2023-04-03T02:25:30;9.05;;;3.45;;
33154;SDS011;19511;42.682;23.332;2023-04-03T02:27:57;5.50;;;3.22;;
33154;SDS011;19511;42.682;23.332;2023-04-03T02:30:22;5.85;;;2.83;;
33154;SDS011;19511;42.682;23.332;2023-04-03T02:32:47;3.30;;;1.95;;
33154;SDS011;19511;42.682;23.332;2023-04-03T02:35:13;5.63;;;2.35;;
33154;SDS011;19511;42.682;23.332;2023-04-03T02:37:38;9.02;;;2.58;;
33154;SDS011;19511;42.682;23.332;2023-04-03T02:40:04;5.07;;;2.40;;
33154;SDS011;19511;42.682;23.332;2023-04-03T02:42:33;4.20;;;2.00;;
33154;SDS011;19511;42.682;23.332;2023-04-03T02:44:59;3.60;;;2.25;;
33154;SDS011;19511;42.682;23.332;2023-04-03T02:47:25;5.32;;;2.50;;
33154;SDS011;19511;42.682;23.332;2023-04-03T02:49:52;5.10;;;3.15;;
33154;SDS011;19511;42.682;23.332;2023-04-03T02:52:17;3.65;;;1.92;;
33154;SDS011;19511;42.682;23.332;2023-04-03T02:54:43;4.32;;;2.55;;
33154;SDS011;19511;42.682;23.332;2023-04-03T02:57:08;3.53;;;2.38;;
33154;SDS011;19511;42.682;23.332;2023-04-03T02:59:37;3.85;;;2.90;;
33154;SDS011;19511;42.682;23.332;2023-04-03T03:02:07;5.13;;;3.17;;
33154;SDS011;19511;42.682;23.332;2023-04-03T03:04:33;6.78;;;3.38;;
33154;SDS011;19511;42.682;23.332;2023-04-03T03:06:59;3.63;;;2.30;;
33154;SDS011;19511;42.682;23.332;2023-04-03T03:09:28;9.15;;;3.17;;
33154;SDS011;19511;42.682;23.332;2023-04-03T03:11:58;4.35;;;2.75;;
33154;SDS011;19511;42.682;23.332;2023-04-03T03:14:23;3.00;;;2.45;;
33154;SDS011;19511;42.682;23.332;2023-04-03T03:16:52;3.95;;;2.70;;
33154;SDS011;19511;42.682;23.332;2023-04-03T03:19:17;5.32;;;2.72;;
33154;SDS011;19511;42.682;23.332;2023-04-03T03:21:47;5.43;;;2.60;;
33154;SDS011;19511;42.682;23.332;2023-04-03T03:24:12;2.92;;;2.17;;
33154;SDS011;19511;42.682;23.332;2023-04-03T03:26:38;15.00;;;3.50;;
33154;SDS011;19511;42.682;23.332;2023-04-03T03:29:03;3.42;;;2.25;;
33154;SDS011;19511;42.682;23.332;2023-04-03T03:31:29;3.75;;;2.20;;
33154;SDS011;19511;42.682;23.332;2023-04-03T03:33:55;7.25;;;4.35;;
33154;SDS011;19511;42.682;23.332;2023-04-03T03:36:24;6.57;;;3.20;;
33154;SDS011;19511;42.682;23.332;2023-04-03T03:38:49;5.95;;;3.78;;
33154;SDS011;19511;42.682;23.332;2023-04-03T03:41:15;5.80;;;3.58;;
33154;SDS011;19511;42.682;23.332;2023-04-03T03:43:40;9.50;;;4.75;;
33154;SDS011;19511;42.682;23.332;2023-04-03T03:46:06;10.60;;;4.00;;
33154;SDS011;19511;42.682;23.332;2023-04-03T03:48:39;9.73;;;4.05;;
33154;SDS011;19511;42.682;23.332;2023-04-03T03:51:04;9.90;;;4.63;;
33154;SDS011;19511;42.682;23.332;2023-04-03T03:53:30;5.60;;;3.80;;
33154;SDS011;19511;42.682;23.332;2023-04-03T03:55:55;8.95;;;3.95;;
33154;SDS011;19511;42.682;23.332;2023-04-03T03:58:21;7.88;;;4.10;;
33154;SDS011;19511;42.682;23.332;2023-04-03T04:00:48;8.82;;;4.75;;
33154;SDS011;19511;42.682;23.332;2023-04-03T04:03:15;9.88;;;4.05;;
33154;SDS011;19511;42.682;23.332;2023-04-03T04:05:41;7.20;;;4.25;;
33154;SDS011;19511;42.682;23.332;2023-04-03T04:08:06;8.65;;;4.18;;
33154;SDS011;19511;42.682;23.332;2023-04-03T04:10:38;7.75;;;4.45;;
33154;SDS011;19511;42.682;23.332;2023-04-03T04:13:04;17.08;;;4.57;;
33154;SDS011;19511;42.682;23.332;2023-04-03T04:15:29;7.65;;;3.97;;
33154;SDS011;19511;42.682;23.332;2023-04-03T04:17:59;16.35;;;5.28;;
33154;SDS011;19511;42.682;23.332;2023-04-03T04:20:24;10.88;;;4.88;;
33154;SDS011;19511;42.682;23.332;2023-04-03T04:22:54;17.27;;;4.15;;
33154;SDS011;19511;42.682;23.332;2023-04-03T04:25:19;8.15;;;4.05;;
33154;SDS011;19511;42.682;23.332;2023-04-03T04:27:45;6.53;;;4.15;;
33154;SDS011;19511;42.682;23.332;2023-04-03T04:30:10;10.77;;;4.97;;
33154;SDS011;19511;42.682;23.332;2023-04-03T04:32:36;11.75;;;5.97;;
33154;SDS011;19511;42.682;23.332;2023-04-03T04:35:02;7.63;;;4.63;;
33154;SDS011;19511;42.682;23.332;2023-04-03T04:37:28;11.07;;;4.45;;
33154;SDS011;19511;42.682;23.332;2023-04-03T04:39:54;10.55;;;5.65;;
33154;SDS011;19511;42.682;23.332;2023-04-03T04:42:20;12.48;;;4.53;;
33154;SDS011;19511;42.682;23.332;2023-04-03T04:44:48;7.80;;;3.88;;
33154;SDS011;19511;42.682;23.332;2023-04-03T04:47:14;5.55;;;3.60;;
33154;SDS011;19511;42.682;23.332;2023-04-03T04:49:39;14.43;;;4.28;;
33154;SDS011;19511;42.682;23.332;2023-04-03T04:52:05;12.00;;;5.50;;
33154;SDS011;19511;42.682;23.332;2023-04-03T04:54:33;9.18;;;4.30;;
33154;SDS011;19511;42.682;23.332;2023-04-03T04:56:59;9.90;;;4.03;;
33154;SDS011;19511;42.682;23.332;2023-04-03T04:59:24;11.10;;;5.60;;
33154;SDS011;19511;42.682;23.332;2023-04-03T05:01:50;8.50;;;4.63;;
33154;SDS011;19511;42.682;23.332;2023-04-03T05:04:15;8.50;;;4.70;;
33154;SDS011;19511;42.682;23.332;2023-04-03T05:06:41;10.50;;;5.07;;
33154;SDS011;19511;42.682;23.332;2023-04-03T05:09:06;14.32;;;5.30;;
33154;SDS011;19511;42.682;23.332;2023-04-03T05:11:32;9.00;;;4.32;;
33154;SDS011;19511;42.682;23.332;2023-04-03T05:13:58;5.70;;;3.88;;
33154;SDS011;19511;42.682;23.332;2023-04-03T05:16:23;9.82;;;4.78;;
33154;SDS011;19511;42.682;23.332;2023-04-03T05:18:49;9.43;;;5.07;;
33154;SDS011;19511;42.682;23.332;2023-04-03T05:21:14;13.90;;;5.00;;
33154;SDS011;19511;42.682;23.332;2023-04-03T05:23:40;39.05;;;5.53;;
33154;SDS011;19511;42.682;23.332;2023-04-03T05:26:05;11.00;;;6.10;;
33154;SDS011;19511;42.682;23.332;2023-04-03T05:28:31;11.85;;;5.93;;
33154;SDS011;19511;42.682;23.332;2023-04-03T05:30:57;10.23;;;5.40;;
33154;SDS011;19511;42.682;23.332;2023-04-03T05:33:27;20.17;;;5.13;;
33154;SDS011;19511;42.682;23.332;2023-04-03T05:35:54;13.93;;;5.10;;
33154;SDS011;19511;42.682;23.332;2023-04-03T05:38:20;10.00;;;4.30;;
33154;SDS011;19511;42.682;23.332;2023-04-03T05:40:48;8.70;;;5.03;;
33154;SDS011;19511;42.682;23.332;2023-04-03T05:43:13;12.40;;;5.50;;
33154;SDS011;19511;42.682;23.332;2023-04-03T05:45:39;17.45;;;5.57;;
33154;SDS011;19511;42.682;23.332;2023-04-03T05:48:04;11.65;;;4.85;;
33154;SDS011;19511;42.682;23.332;2023-04-03T05:50:30;19.20;;;5.45;;
33154;SDS011;19511;42.682;23.332;2023-04-03T05:52:56;30.65;;;5.50;;
33154;SDS011;19511;42.682;23.332;2023-04-03T05:55:23;9.75;;;4.82;;
33154;SDS011;19511;42.682;23.332;2023-04-03T05:57:51;14.50;;;6.50;;
33154;SDS011;19511;42.682;23.332;2023-04-03T06:00:17;14.88;;;5.70;;
33154;SDS011;19511;42.682;23.332;2023-04-03T06:02:43;16.45;;;5.68;;
33154;SDS011;19511;42.682;23.332;2023-04-03T06:05:09;16.20;;;6.38;;
33154;SDS011;19511;42.682;23.332;2023-04-03T06:07:36;9.35;;;5.85;;
33154;SDS011;19511;42.682;23.332;2023-04-03T06:10:02;9.70;;;5.35;;
33154;SDS011;19511;42.682;23.332;2023-04-03T06:12:31;18.20;;;5.82;;
33154;SDS011;19511;42.682;23.332;2023-04-03T06:14:57;10.27;;;5.32;;
33154;SDS011;19511;42.682;23.332;2023-04-03T06:17:23;19.77;;;5.80;;
33154;SDS011;19511;42.682;23.332;2023-04-03T06:19:55;10.23;;;5.25;;
33154;SDS011;19511;42.682;23.332;2023-04-03T06:22:23;10.68;;;5.05;;
33154;SDS011;19511;42.682;23.332;2023-04-03T06:24:50;14.00;;;6.32;;
33154;SDS011;19511;42.682;23.332;2023-04-03T06:27:16;19.75;;;7.15;;
33154;SDS011;19511;42.682;23.332;2023-04-03T06:29:41;16.50;;;6.65;;
33154;SDS011;19511;42.682;23.332;2023-04-03T06:32:14;9.10;;;5.30;;
33154;SDS011;19511;42.682;23.332;2023-04-03T06:34:41;12.55;;;6.22;;
33154;SDS011;19511;42.682;23.332;2023-04-03T06:37:20;12.77;;;6.38;;
33154;SDS011;19511;42.682;23.332;2023-04-03T06:39:47;15.95;;;6.78;;
33154;SDS011;19511;42.682;23.332;2023-04-03T06:42:13;16.92;;;6.05;;
33154;SDS011;19511;42.682;23.332;2023-04-03T06:44:42;9.20;;;5.72;;
33154;SDS011;19511;42.682;23.332;2023-04-03T06:47:09;12.75;;;6.35;;
33154;SDS011;19511;42.682;23.332;2023-04-03T06:49:37;21.65;;;6.68;;
33154;SDS011;19511;42.682;23.332;2023-04-03T06:52:03;13.40;;;5.65;;
33154;SDS011;19511;42.682;23.332;2023-04-03T06:54:29;14.57;;;7.78;;
33154;SDS011;19511;42.682;23.332;2023-04-03T06:57:00;19.52;;;6.72;;
33154;SDS011;19511;42.682;23.332;2023-04-03T06:59:26;18.00;;;5.97;;
33154;SDS011;19511;42.682;23.332;2023-04-03T07:01:52;16.20;;;6.72;;
33154;SDS011;19511;42.682;23.332;2023-04-03T07:04:17;9.75;;;5.80;;
33154;SDS011;19511;42.682;23.332;2023-04-03T07:06:45;18.70;;;5.82;;
33154;SDS011;19511;42.682;23.332;2023-04-03T07:09:12;11.38;;;5.28;;
33154;SDS011;19511;42.682;23.332;2023-04-03T07:14:23;9.57;;;5.75;;
33154;SDS011;19511;42.682;23.332;2023-04-03T07:16:50;12.05;;;5.13;;
33154;SDS011;19511;42.682;23.332;2023-04-03T07:19:17;5.45;;;3.45;;
33154;SDS011;19511;42.682;23.332;2023-04-03T07:21:43;11.98;;;4.25;;
33154;SDS011;19511;42.682;23.332;2023-04-03T07:24:09;12.30;;;4.43;;
33154;SDS011;19511;42.682;23.332;2023-04-03T07:26:35;9.23;;;5.32;;
33154;SDS011;19511;42.682;23.332;2023-04-03T07:29:01;8.02;;;5.07;;
33154;SDS011;19511;42.682;23.332;2023-04-03T07:31:28;19.33;;;5.13;;
33154;SDS011;19511;42.682;23.332;2023-04-03T07:33:54;10.95;;;3.88;;
33154;SDS011;19511;42.682;23.332;2023-04-03T07:36:23;7.43;;;4.13;;
33154;SDS011;19511;42.682;23.332;2023-04-03T07:38:49;9.40;;;4.95;;
33154;SDS011;19511;42.682;23.332;2023-04-03T07:41:15;6.03;;;3.72;;
33154;SDS011;19511;42.682;23.332;2023-04-03T07:43:45;12.23;;;4.80;;
33154;SDS011;19511;42.682;23.332;2023-04-03T07:46:11;9.57;;;3.78;;
33154;SDS011;19511;42.682;23.332;2023-04-03T07:48:37;9.23;;;5.28;;
33154;SDS011;19511;42.682;23.332;2023-04-03T07:51:05;15.27;;;6.57;;
33154;SDS011;19511;42.682;23.332;2023-04-03T07:53:31;18.00;;;6.95;;
33154;SDS011;19511;42.682;23.332;2023-04-03T07:55:57;11.27;;;6.50;;
33154;SDS011;19511;42.682;23.332;2023-04-03T07:58:25;15.07;;;6.07;;
33154;SDS011;19511;42.682;23.332;2023-04-03T08:00:50;18.17;;;6.43;;
33154;SDS011;19511;42.682;23.332;2023-04-03T08:03:16;15.43;;;5.60;;
33154;SDS011;19511;42.682;23.332;2023-04-03T08:05:43;8.82;;;5.18;;
33154;SDS011;19511;42.682;23.332;2023-04-03T08:08:10;11.85;;;5.72;;
33154;SDS011;19511;42.682;23.332;2023-04-03T08:10:37;7.38;;;5.55;;
33154;SDS011;19511;42.682;23.332;2023-04-03T08:13:03;15.02;;;7.03;;
33154;SDS011;19511;42.682;23.332;2023-04-03T08:15:36;13.10;;;6.65;;
33154;SDS011;19511;42.682;23.332;2023-04-03T08:18:01;11.02;;;6.00;;
33154;SDS011;19511;42.682;23.332;2023-04-03T08:20:28;17.15;;;7.35;;
33154;SDS011;19511;42.682;23.332;2023-04-03T08:22:54;23.17;;;6.40;;
33154;SDS011;19511;42.682;23.332;2023-04-03T08:25:19;22.55;;;9.20;;
33154;SDS011;19511;42.682;23.332;2023-04-03T08:27:45;17.75;;;8.75;;
33154;SDS011;19511;42.682;23.332;2023-04-03T08:30:11;22.10;;;7.68;;
33154;SDS011;19511;42.682;23.332;2023-04-03T08:32:40;23.98;;;9.20;;
33154;SDS011;19511;42.682;23.332;2023-04-03T08:35:08;27.10;;;8.50;;
33154;SDS011;19511;42.682;23.332;2023-04-03T08:37:37;20.17;;;9.68;;
33154;SDS011;19511;42.682;23.332;2023-04-03T08:40:07;26.45;;;9.18;;
33154;SDS011;19511;42.682;23.332;2023-04-03T08:48:05;22.10;;;9.63;;
33154;SDS011;19511;42.682;23.332;2023-04-03T08:51:13;18.20;;;9.65;;
33154;SDS011;19511;42.682;23.332;2023-04-03T08:53:31;17.88;;;8.48;;
33154;SDS011;19511;42.682;23.332;2023-04-03T08:56:08;16.45;;;8.38;;
33154;SDS011;19511;42.682;23.332;2023-04-03T08:58:56;29.50;;;8.45;;
33154;SDS011;19511;42.682;23.332;2023-04-03T09:03:52;25.58;;;7.78;;
33154;SDS011;19511;42.682;23.332;2023-04-03T09:06:20;21.08;;;8.07;;
33154;SDS011;19511;42.682;23.332;2023-04-03T09:22:16;16.20;;;8.77;;
33154;SDS011;19511;42.682;23.332;2023-04-03T09:24:58;10.63;;;6.00;;
33154;SDS011;19511;42.682;23.332;2023-04-03T09:27:48;7.17;;;4.67;;
33154;SDS011;19511;42.682;23.332;2023-04-03T09:30:15;11.60;;;5.28;;
33154;SDS011;19511;42.682;23.332;2023-04-03T09:32:44;11.38;;;6.15;;
33154;SDS011;19511;42.682;23.332;2023-04-03T09:35:29;18.17;;;5.82;;
33154;SDS011;19511;42.682;23.332;2023-04-03T09:38:18;12.98;;;6.22;;
33154;SDS011;19511;42.682;23.332;2023-04-03T09:41:03;17.73;;;7.35;;
33154;SDS011;19511;42.682;23.332;2023-04-03T09:43:32;12.20;;;5.72;;
33154;SDS011;19511;42.682;23.332;2023-04-03T09:46:28;14.52;;;6.75;;
33154;SDS011;19511;42.682;23.332;2023-04-03T09:48:57;21.45;;;6.95;;
33154;SDS011;19511;42.682;23.332;2023-04-03T09:51:27;13.05;;;5.68;;
33154;SDS011;19511;42.682;23.332;2023-04-03T09:53:54;10.15;;;4.93;;
33154;SDS011;19511;42.682;23.332;2023-04-03T10:01:26;14.00;;;5.70;;
33154;SDS011;19511;42.682;23.332;2023-04-03T10:07:01;12.18;;;5.45;;
33154;SDS011;19511;42.682;23.332;2023-04-03T10:11:58;13.45;;;6.25;;
33154;SDS011;19511;42.682;23.332;2023-04-03T10:14:28;11.25;;;6.32;;
33154;SDS011;19511;42.682;23.332;2023-04-03T10:19:55;15.90;;;5.70;;
33154;SDS011;19511;42.682;23.332;2023-04-03T10:25:19;12.88;;;4.25;;
33154;SDS011;19511;42.682;23.332;2023-04-03T10:38:44;11.70;;;5.00;;
33154;SDS011;19511;42.682;23.332;2023-04-03T10:51:44;7.72;;;3.60;;
33154;SDS011;19511;42.682;23.332;2023-04-03T10:54:16;5.55;;;3.30;;
33154;SDS011;19511;42.682;23.332;2023-04-03T10:56:57;7.95;;;3.05;;
33154;SDS011;19511;42.682;23.332;2023-04-03T11:02:27;7.15;;;3.10;;
33154;SDS011;19511;42.682;23.332;2023-04-03T11:05:03;9.88;;;3.13;;
33154;SDS011;19511;42.682;23.332;2023-04-03T11:07:40;6.80;;;3.08;;
33154;SDS011;19511;42.682;23.332;2023-04-03T11:10:13;3.58;;;1.88;;
33154;SDS011;19511;42.682;23.332;2023-04-03T11:12:51;8.30;;;2.50;;
33154;SDS011;19511;42.682;23.332;2023-04-03T11:15:21;6.40;;;2.67;;
33154;SDS011;19511;42.682;23.332;2023-04-03T11:18:01;11.20;;;3.03;;
33154;SDS011;19511;42.682;23.332;2023-04-03T11:20:31;5.45;;;1.77;;
33154;SDS011;19511;42.682;23.332;2023-04-03T11:25:51;8.82;;;2.00;;
33154;SDS011;19511;42.682;23.332;2023-04-03T11:28:19;3.42;;;2.58;;
33154;SDS011;19511;42.682;23.332;2023-04-03T11:36:02;7.65;;;2.88;;
33154;SDS011;19511;42.682;23.332;2023-04-03T11:38:43;4.22;;;2.30;;
33154;SDS011;19511;42.682;23.332;2023-04-03T11:41:14;6.18;;;2.03;;
33154;SDS011;19511;42.682;23.332;2023-04-03T11:43:42;1.90;;;1.55;;
33154;SDS011;19511;42.682;23.332;2023-04-03T11:46:22;2.33;;;1.88;;
33154;SDS011;19511;42.682;23.332;2023-04-03T11:48:48;13.90;;;2.22;;
33154;SDS011;19511;42.682;23.332;2023-04-03T11:53:41;2.63;;;1.60;;
33154;SDS011;19511;42.682;23.332;2023-04-03T12:01:45;2.92;;;1.88;;
33154;SDS011;19511;42.682;23.332;2023-04-03T12:04:13;2.85;;;2.25;;
33154;SDS011;19511;42.682;23.332;2023-04-03T12:09:32;3.22;;;1.98;;
33154;SDS011;19511;42.682;23.332;2023-04-03T12:12:27;5.00;;;1.90;;
33154;SDS011;19511;42.682;23.332;2023-04-03T12:14:57;6.25;;;2.33;;
33154;SDS011;19511;42.682;23.332;2023-04-03T12:18:30;2.35;;;1.73;;
33154;SDS011;19511;42.682;23.332;2023-04-03T12:21:11;1.75;;;1.40;;
33154;SDS011;19511;42.682;23.332;2023-04-03T12:23:58;4.43;;;2.15;;
33154;SDS011;19511;42.682;23.332;2023-04-03T12:26:27;4.75;;;1.90;;
33154;SDS011;19511;42.682;23.332;2023-04-03T12:29:21;6.45;;;2.25;;
33154;SDS011;19511;42.682;23.332;2023-04-03T12:45:08;3.05;;;1.83;;
33154;SDS011;19511;42.682;23.332;2023-04-03T12:47:43;4.57;;;2.28;;
33154;SDS011;19511;42.682;23.332;2023-04-03T12:50:27;5.75;;;2.60;;
33154;SDS011;19511;42.682;23.332;2023-04-03T12:55:35;11.15;;;2.45;;
33154;SDS011;19511;42.682;23.332;2023-04-03T13:03:28;4.35;;;2.60;;
33154;SDS011;19511;42.682;23.332;2023-04-03T13:06:01;4.43;;;2.72;;
33154;SDS011;19511;42.682;23.332;2023-04-03T13:08:29;5.03;;;2.92;;
33154;SDS011;19511;42.682;23.332;2023-04-03T13:11:11;6.57;;;3.08;;
33154;SDS011;19511;42.682;23.332;2023-04-03T13:13:40;4.93;;;2.92;;
33154;SDS011;19511;42.682;23.332;2023-04-03T13:16:19;9.05;;;3.67;;
33154;SDS011;19511;42.682;23.332;2023-04-03T13:18:52;3.28;;;2.35;;
33154;SDS011;19511;42.682;23.332;2023-04-03T13:21:22;5.53;;;3.38;;
33154;SDS011;19511;42.682;23.332;2023-04-03T13:23:57;9.30;;;4.22;;
33154;SDS011;19511;42.682;23.332;2023-04-03T13:26:34;5.10;;;3.50;;
33154;SDS011;19511;42.682;23.332;2023-04-03T13:29:05;6.63;;;3.10;;
33154;SDS011;19511;42.682;23.332;2023-04-03T13:31:36;5.85;;;3.03;;
33154;SDS011;19511;42.682;23.332;2023-04-03T13:36:36;5.03;;;3.65;;
33154;SDS011;19511;42.682;23.332;2023-04-03T13:41:44;5.50;;;3.35;;
33154;SDS011;19511;42.682;23.332;2023-04-03T13:46:47;4.68;;;3.05;;
33154;SDS011;19511;42.682;23.332;2023-04-03T13:49:43;9.73;;;4.03;;
33154;SDS011;19511;42.682;23.332;2023-04-03T13:57:48;4.28;;;3.53;;
33154;SDS011;19511;42.682;23.332;2023-04-03T14:00:21;8.87;;;4.50;;
33154;SDS011;19511;42.682;23.332;2023-04-03T14:05:47;5.82;;;3.03;;
33154;SDS011;19511;42.682;23.332;2023-04-03T14:08:17;6.90;;;4.75;;
33154;SDS011;19511;42.682;23.332;2023-04-03T14:10:42;17.83;;;5.13;;
33154;SDS011;19511;42.682;23.332;2023-04-03T14:13:15;7.38;;;4.72;;
33154;SDS011;19511;42.682;23.332;2023-04-03T14:15:43;12.05;;;5.30;;
33154;SDS011;19511;42.682;23.332;2023-04-03T14:18:14;8.77;;;4.15;;
33154;SDS011;19511;42.682;23.332;2023-04-03T14:20:42;10.85;;;5.05;;
33154;SDS011;19511;42.682;23.332;2023-04-03T14:23:08;9.60;;;4.57;;
33154;SDS011;19511;42.682;23.332;2023-04-03T14:25:35;9.32;;;5.28;;
33154;SDS011;19511;42.682;23.332;2023-04-03T14:28:00;8.93;;;5.38;;
33154;SDS011;19511;42.682;23.332;2023-04-03T14:30:37;8.13;;;4.32;;
33154;SDS011;19511;42.682;23.332;2023-04-03T14:33:03;6.60;;;3.80;;
33154;SDS011;19511;42.682;23.332;2023-04-03T14:35:31;21.05;;;5.18;;
33154;SDS011;19511;42.682;23.332;2023-04-03T14:37:56;6.32;;;3.92;;
33154;SDS011;19511;42.682;23.332;2023-04-03T14:40:26;6.28;;;3.65;;
33154;SDS011;19511;42.682;23.332;2023-04-03T14:42:52;6.15;;;3.72;;
33154;SDS011;19511;42.682;23.332;2023-04-03T14:45:20;6.53;;;3.95;;
33154;SDS011;19511;42.682;23.332;2023-04-03T14:47:47;5.35;;;2.90;;
33154;SDS011;19511;42.682;23.332;2023-04-03T14:50:23;8.38;;;4.43;;
33154;SDS011;19511;42.682;23.332;2023-04-03T14:52:52;9.77;;;4.10;;
33154;SDS011;19511;42.682;23.332;2023-04-03T14:55:21;6.22;;;2.97;;
33154;SDS011;19511;42.682;23.332;2023-04-03T14:57:51;4.95;;;3.13;;
33154;SDS011;19511;42.682;23.332;2023-04-03T15:00:19;6.63;;;3.40;;
33154;SDS011;19511;42.682;23.332;2023-04-03T15:02:46;3.45;;;2.95;;
33154;SDS011;19511;42.682;23.332;2023-04-03T15:05:16;10.32;;;3.17;;
33154;SDS011;19511;42.682;23.332;2023-04-03T15:08:01;5.68;;;3.25;;
33154;SDS011;19511;42.682;23.332;2023-04-03T15:10:28;5.72;;;3.58;;
33154;SDS011;19511;42.682;23.332;2023-04-03T15:12:55;5.47;;;2.80;;
33154;SDS011;19511;42.682;23.332;2023-04-03T15:15:22;5.05;;;3.30;;
33154;SDS011;19511;42.682;23.332;2023-04-03T15:17:52;3.03;;;1.95;;
33154;SDS011;19511;42.682;23.332;2023-04-03T15:20:20;4.57;;;3.00;;
33154;SDS011;19511;42.682;23.332;2023-04-03T15:22:48;17.45;;;2.90;;
33154;SDS011;19511;42.682;23.332;2023-04-03T15:25:15;10.80;;;3.30;;
33154;SDS011;19511;42.682;23.332;2023-04-03T15:27:41;5.22;;;3.20;;
33154;SDS011;19511;42.682;23.332;2023-04-03T15:30:08;4.57;;;2.88;;
33154;SDS011;19511;42.682;23.332;2023-04-03T15:32:38;4.53;;;2.45;;
33154;SDS011;19511;42.682;23.332;2023-04-03T15:35:03;7.70;;;3.65;;
33154;SDS011;19511;42.682;23.332;2023-04-03T15:37:29;12.30;;;4.18;;
33154;SDS011;19511;42.682;23.332;2023-04-03T15:39:55;4.85;;;2.92;;
33154;SDS011;19511;42.682;23.332;2023-04-03T15:42:20;6.65;;;3.53;;
33154;SDS011;19511;42.682;23.332;2023-04-03T15:44:46;6.10;;;2.97;;
33154;SDS011;19511;42.682;23.332;2023-04-03T15:47:11;4.68;;;2.45;;
33154;SDS011;19511;42.682;23.332;2023-04-03T15:49:38;2.15;;;1.95;;
33154;SDS011;19511;42.682;23.332;2023-04-03T15:52:05;3.03;;;2.33;;
33154;SDS011;19511;42.682;23.332;2023-04-03T15:54:34;3.67;;;2.63;;
33154;SDS011;19511;42.682;23.332;2023-04-03T15:57:00;8.43;;;2.47;;
33154;SDS011;19511;42.682;23.332;2023-04-03T15:59:26;6.03;;;2.60;;
33154;SDS011;19511;42.682;23.332;2023-04-03T16:01:51;4.15;;;2.60;;
33154;SDS011;19511;42.682;23.332;2023-04-03T16:04:18;3.92;;;2.30;;
33154;SDS011;19511;42.682;23.332;2023-04-03T16:06:45;3.00;;;2.50;;
33154;SDS011;19511;42.682;23.332;2023-04-03T16:09:11;4.30;;;3.15;;
33154;SDS011;19511;42.682;23.332;2023-04-03T16:11:36;5.03;;;2.90;;
33154;SDS011;19511;42.682;23.332;2023-04-03T16:14:05;5.45;;;2.85;;
33154;SDS011;19511;42.682;23.332;2023-04-03T16:16:31;6.78;;;3.63;;
33154;SDS011;19511;42.682;23.332;2023-04-03T16:18:57;8.75;;;4.60;;
33154;SDS011;19511;42.682;23.332;2023-04-03T16:21:23;5.20;;;2.95;;
33154;SDS011;19511;42.682;23.332;2023-04-03T16:23:52;5.10;;;3.38;;
33154;SDS011;19511;42.682;23.332;2023-04-03T16:26:18;3.95;;;3.20;;
33154;SDS011;19511;42.682;23.332;2023-04-03T16:28:43;4.20;;;3.20;;
33154;SDS011;19511;42.682;23.332;2023-04-03T16:31:09;6.00;;;3.70;;
33154;SDS011;19511;42.682;23.332;2023-04-03T16:33:35;5.25;;;3.78;;
33154;SDS011;19511;42.682;23.332;2023-04-03T16:36:02;4.93;;;3.47;;
33154;SDS011;19511;42.682;23.332;2023-04-03T16:38:28;4.97;;;3.20;;
33154;SDS011;19511;42.682;23.332;2023-04-03T16:40:57;7.18;;;3.92;;
33154;SDS011;19511;42.682;23.332;2023-04-03T16:43:24;12.43;;;3.78;;
33154;SDS011;19511;42.682;23.332;2023-04-03T16:45:54;4.82;;;2.78;;
33154;SDS011;19511;42.682;23.332;2023-04-03T16:48:24;5.60;;;3.42;;
33154;SDS011;19511;42.682;23.332;2023-04-03T16:50:49;4.53;;;3.35;;